FW5820 Weather Reports


Display with metric or nautical units.
time (UTC)temp
F
wind
direction
speed
MPH
gust
MPH
rain 1hr
in
rain 24hr
in
rain mn
in
humidity
%
barometer
mb
20200331102510 39 168 4.0 5.0 0.00 0.00 0.00 82 1017.0
20200331102003 39 148 4.0 7.0 0.00 0.00 0.00 83 1016.7
20200331095538 39 165 2.0 3.0 0.00 0.00 0.00 84 1016.2
20200331095037 39 284 4.0 5.0 0.00 0.00 0.00 83 1015.9
20200331094531 39 79 4.0 5.0 0.00 0.00 0.00 83 1015.9
20200331093343 39 134 2.0 3.0 0.00 0.00 0.00 83 1015.9
20200331092153 39 43 1.0 3.0 0.00 0.00 0.00 84 1015.8
20200331091648 39 47 2.0 4.0 0.00 0.00 0.00 84 1016.0
20200331091141 39 347 6.0 9.0 0.00 0.00 0.00 85 1015.7
20200331090633 39 347 6.0 9.0 0.00 0.00 0.00 85 1015.7
20200331090124 39 0 3.0 9.0 0.00 0.00 0.00 85 1015.7
20200331085616 39 61 3.0 7.0 0.00 0.00 0.00 85 1015.6
20200331085109 39 177 6.0 7.0 0.00 0.00 0.00 85 1015.6
20200331084557 39 295 6.0 9.0 0.00 0.00 0.00 86 1015.7
20200331084049 39 93 4.0 5.0 0.00 0.00 0.00 86 1015.8
20200331083543 39 236 5.0 7.0 0.00 0.00 0.00 87 1015.5
20200331083042 39 195 6.0 9.0 0.00 0.00 0.00 87 1015.7
20200331082435 39 152 2.0 4.0 0.00 0.00 0.00 88 1015.7
20200331081922 39 166 4.0 5.0 0.00 0.00 0.00 88 1015.7
20200331081419 39 122 5.0 7.0 0.00 0.00 0.00 88 1015.8
20200331080845 39 182 4.0 6.0 0.00 0.00 0.00 88 1015.8
20200331080338 39 102 3.0 5.0 0.00 0.00 0.00 88 1015.6
20200331075831 39 68 5.0 6.0 0.00 0.00 0.00 88 1015.5
20200331075330 39 139 3.0 4.0 0.00 0.00 0.00 88 1015.9
20200331074820 39 355 5.0 10.0 0.00 0.00 0.00 88 1015.9
20200331074305 39 116 6.0 7.0 0.00 0.00 0.00 87 1015.8
20200331073754 40 295 4.0 9.0 0.00 0.00 0.00 86 1015.8
20200331073248 40 200 5.0 7.0 0.00 0.00 0.00 85 1015.8
20200331072211 40 106 2.0 3.0 0.00 0.00 0.00 84 1015.8
20200331071659 40 160 1.0 2.0 0.00 0.00 0.00 85 1015.7
20200331071150 40 112 7.0 9.0 0.00 0.00 0.00 84 1015.8
20200331070647 41 328 4.0 6.0 0.00 0.00 0.00 84 1015.8
20200331070143 41 40 4.0 5.0 0.00 0.00 0.00 85 1016.1
20200331065634 41 125 2.0 4.0 0.00 0.00 0.00 84 1016.1
20200331064446 41 160 5.0 9.0 0.00 0.00 0.00 83 1016.0
20200331063415 41 76 2.0 4.0 0.00 0.00 0.00 83 1016.1
20200331061659 41 98 3.0 4.0 0.00 0.00 0.00 82 1016.1
20200331061157 41 88 3.0 7.0 0.00 0.00 0.00 82 1016.2
20200331060649 41 177 1.0 2.0 0.00 0.00 0.00 82 1016.1
20200331055637 41 151 0.0 0.0 0.00 0.00 0.00 82 1016.4
20200331055131 41 283 3.0 4.0 0.00 0.00 0.00 82 1016.5
20200331053949 42 143 3.0 5.0 0.00 0.00 0.00 82 1016.5
20200331053437 42 264 2.0 3.0 0.00 0.00 0.00 82 1016.4
20200331052930 42 254 4.0 5.0 0.00 0.00 0.00 82 1016.6
20200331052321 42 94 3.0 5.0 0.00 0.00 0.00 82 1016.5
20200331051818 42 130 2.0 4.0 0.00 0.00 0.00 82 1016.2
20200331051307 42 191 8.0 10.0 0.00 0.00 0.00 82 1016.0
20200331050751 42 151 1.0 2.0 0.00 0.00 0.00 82 1016.2
20200331050246 42 112 4.0 5.0 0.00 0.00 0.00 81 1016.1
20200331045745 42 149 1.0 2.0 0.00 0.00 0.00 81 1016.3
20200331044604 42 171 1.0 2.0 0.00 0.00 0.00 81 1016.2
20200331044055 42 130 1.0 2.0 0.00 0.00 0.00 82 1016.2
20200331043015 42 130 1.0 2.0 0.00 0.00 0.00 82 1016.2
20200331042513 42 89 2.0 4.0 0.00 0.00 0.00 84 1016.3
20200331041955 42 89 2.0 4.0 0.00 0.00 0.00 84 1016.3
20200331041428 42 77 2.0 4.0 0.00 0.00 0.00 84 1016.3
20200331040921 42 161 2.0 3.0 0.00 0.00 0.00 84 1016.2
20200331040356 42 195 3.0 3.0 0.00 0.00 0.00 84 1016.3
20200331035846 42 174 3.0 6.0 0.00 0.00 0.00 83 1016.2
20200331034811 42 166 2.0 2.0 0.00 0.00 0.00 83 1016.2
20200331034305 42 121 3.0 4.0 0.00 0.00 0.00 82 1016.2
20200331033739 42 121 3.0 4.0 0.00 0.00 0.00 82 1016.2
20200331032547 43 19 5.0 7.0 0.00 0.00 0.00 81 1016.2
20200331032034 43 19 5.0 7.0 0.00 0.00 0.00 81 1016.2
20200331031524 43 97 3.0 4.0 0.00 0.00 0.00 81 1016.1
20200331030450 43 23 3.0 5.0 0.00 0.00 0.00 81 1016.3
20200331025910 43 147 4.0 6.0 0.00 0.00 0.00 82 1016.1
20200331024724 44 147 2.0 3.0 0.00 0.00 0.00 81 1016.2
20200331024218 44 191 2.0 3.0 0.00 0.00 0.00 81 1016.0
20200331023706 44 103 3.0 9.0 0.00 0.00 0.00 80 1016.1
20200331023154 44 17 4.0 7.0 0.00 0.00 0.00 80 1016.2
20200331022644 44 17 4.0 7.0 0.00 0.00 0.00 80 1016.2
20200331021454 44 130 2.0 3.0 0.00 0.00 0.00 82 1016.1
20200331020953 44 130 2.0 3.0 0.00 0.00 0.00 82 1016.1
20200331015920 44 150 1.0 3.0 0.00 0.00 0.00 82 1016.3
20200331014736 45 171 0.0 0.0 0.00 0.00 0.00 81 1016.0
20200331014225 45 171 0.0 0.0 0.00 0.00 0.00 81 1016.0
20200331013719 45 171 0.0 0.0 0.00 0.00 0.00 81 1016.0
20200331013210 45 164 2.0 3.0 0.00 0.00 0.00 81 1016.0
20200331012648 45 164 2.0 3.0 0.00 0.00 0.00 81 1016.0
20200331012127 45 196 2.0 4.0 0.00 0.00 0.00 80 1015.9
20200331011615 45 196 2.0 4.0 0.00 0.00 0.00 80 1015.9
20200331011104 45 133 2.0 3.0 0.00 0.00 0.00 81 1015.8
20200331010548 45 133 2.0 3.0 0.00 0.00 0.00 81 1015.8
20200331003155 46 275 4.0 6.0 0.00 0.00 0.00 81 1014.8
20200331002043 46 275 4.0 6.0 0.00 0.00 0.00 81 1014.8
20200331000845 46 275 4.0 6.0 0.00 0.00 0.00 81 1014.8
20200331000316 46 275 4.0 6.0 0.00 0.00 0.00 81 1014.8
20200330235804 46 275 4.0 6.0 0.00 0.00 0.00 81 1014.8
20200330234043 46 275 4.0 6.0 0.00 0.00 0.00 81 1014.8
20200330233513 46 69 4.0 6.0 0.00 0.00 0.00 80 1014.7
20200330233009 46 69 4.0 6.0 0.00 0.00 0.00 80 1014.7
20200330232455 46 69 4.0 6.0 0.00 0.00 0.00 80 1014.7
20200330231947 46 69 4.0 6.0 0.00 0.00 0.00 80 1014.7
20200330231441 46 69 4.0 6.0 0.00 0.00 0.00 80 1014.7
20200330230932 46 69 4.0 6.0 0.00 0.00 0.00 80 1014.7
20200330230431 46 129 7.0 12.0 0.00 0.00 0.00 80 1014.6
20200330225349 48 158 2.0 2.0 0.00 0.00 0.00 75 1014.3
20200330223716 48 158 2.0 2.0 0.00 0.00 0.00 75 1014.3
20200330223210 48 158 2.0 2.0 0.00 0.00 0.00 75 1014.3
20200330222028 48 158 2.0 2.0 0.00 0.00 0.00 75 1014.3
20200330221513 48 158 2.0 2.0 0.00 0.00 0.00 75 1014.3
20200330220331 48 158 2.0 2.0 0.00 0.00 0.00 75 1014.3
20200330215809 48 158 2.0 2.0 0.00 0.00 0.00 75 1014.3
20200330215239 48 158 2.0 2.0 0.00 0.00 0.00 75 1014.3
20200330214046 48 158 2.0 2.0 0.00 0.00 0.00 75 1014.3
20200330213537 48 158 2.0 2.0 0.00 0.00 0.00 75 1014.3
20200330213028 48 158 2.0 2.0 0.00 0.00 0.00 75 1014.3
20200330212510 48 158 2.0 2.0 0.00 0.00 0.00 75 1014.3
20200330212007 48 158 2.0 2.0 0.00 0.00 0.00 75 1014.3
20200330211506 48 158 2.0 2.0 0.00 0.00 0.00 75 1014.3
20200330210926 48 158 2.0 2.0 0.00 0.00 0.00 75 1014.3
20200330210418 48 139 1.0 2.0 0.00 0.00 0.00 74 1014.2
20200330205858 48 139 1.0 2.0 0.00 0.00 0.00 74 1014.2
20200330205336 48 139 1.0 2.0 0.00 0.00 0.00 74 1014.2
20200330204820 48 56 8.0 11.0 0.00 0.00 0.00 74 1014.8
20200330203816 48 56 8.0 11.0 0.00 0.00 0.00 74 1014.8
20200330203305 48 56 8.0 11.0 0.00 0.00 0.00 74 1014.8
20200330202748 48 56 8.0 11.0 0.00 0.00 0.00 74 1014.8
20200330201121 48 56 8.0 11.0 0.00 0.00 0.00 74 1014.8
20200330200536 48 56 8.0 11.0 0.00 0.00 0.00 74 1014.8
20200330200025 48 56 8.0 11.0 0.00 0.00 0.00 74 1014.8
20200330194948 48 149 4.0 6.0 0.00 0.00 0.00 75 1014.5
20200330194435 48 30 13.0 14.0 0.00 0.00 0.00 75 1014.3
20200330192816 47 304 5.0 10.0 0.00 0.00 0.00 76 1014.4
20200330190237 48 177 2.0 3.0 0.00 0.00 0.00 75 1014.9
20200330185735 49 282 9.0 11.0 0.00 0.00 0.00 74 1014.7
20200330185232 49 282 9.0 11.0 0.00 0.00 0.00 74 1014.7
20200330184731 49 282 9.0 11.0 0.00 0.00 0.00 74 1014.7
20200330184227 50 62 4.0 5.0 0.00 0.00 0.00 72 1015.2
20200330183727 50 62 4.0 5.0 0.00 0.00 0.00 72 1015.2
20200330183225 50 66 5.0 9.0 0.00 0.00 0.00 71 1015.2
20200330182224 50 191 5.0 6.0 0.00 0.00 0.00 71 1015.3
20200330181716 50 22 5.0 6.0 0.00 0.00 0.00 71 1015.3
20200330181208 49 140 1.0 2.0 0.00 0.00 0.00 74 1015.2
20200330180703 48 125 3.0 4.0 0.00 0.00 0.00 75 1015.1
20200330175556 49 112 2.0 3.0 0.00 0.00 0.00 72 1015.1
20200330174353 49 134 3.0 4.0 0.00 0.00 0.00 72 1015.2
20200330173823 47 121 2.0 2.0 0.00 0.00 0.00 77 1015.4
20200330170712 47 85 3.0 4.0 0.00 0.00 0.00 76 1015.6
20200330165027 48 132 2.0 3.0 0.00 0.00 0.00 75 1015.4
20200330163827 47 13 6.0 11.0 0.00 0.00 0.00 76 1015.3
20200330162450 47 148 6.0 7.0 0.00 0.00 0.00 77 1015.6
20200330161829 46 185 4.0 5.0 0.00 0.00 0.00 78 1015.5
20200330154240 45 90 4.0 5.0 0.00 0.00 0.00 81 1015.5
20200330150931 44 76 4.0 5.0 0.00 0.00 0.00 83 1016.0
20200330150418 44 76 4.0 5.0 0.00 0.00 0.00 83 1016.0
20200330145749 44 76 4.0 5.0 0.00 0.00 0.00 83 1016.0
20200330143947 44 142 2.0 3.0 0.00 0.00 0.00 83 1015.9
20200330143429 44 142 2.0 3.0 0.00 0.00 0.00 83 1015.9
20200330141313 43 47 7.0 11.0 0.00 0.00 0.00 85 1015.5
20200330140158 43 172 2.0 3.0 0.00 0.00 0.00 85 1015.6
20200330134959 42 347 6.0 10.0 0.00 0.00 0.00 86 1015.6
20200330134436 42 230 2.0 3.0 0.00 0.00 0.00 86 1015.7
20200330133932 42 305 5.0 9.0 0.00 0.00 0.00 86 1015.8
20200330130538 41 304 6.0 7.0 0.00 0.00 0.00 88 1015.6
20200330125353 41 304 6.0 7.0 0.00 0.00 0.00 88 1015.6
20200330124834 41 64 7.0 11.0 0.00 0.00 0.00 89 1015.9
20200330122733 41 78 5.0 7.0 0.00 0.00 0.00 89 1016.2
20200330122147 41 30 4.0 6.0 0.00 0.00 0.00 90 1015.5
20200330121003 41 30 4.0 6.0 0.00 0.00 0.00 90 1015.5
20200330114534 40 28 8.0 10.0 0.00 0.00 0.00 91 1014.6
20200330114005 40 28 8.0 10.0 0.00 0.00 0.00 91 1014.6
20200330112207 40 28 8.0 10.0 0.00 0.00 0.00 91 1014.6
20200330111001 40 28 8.0 10.0 0.00 0.00 0.00 91 1014.6
20200330105657 40 346 9.0 13.0 0.00 0.00 0.00 91 1014.1
20200330105151 40 95 4.0 5.0 0.00 0.00 0.00 92 1014.0
20200330104638 40 95 4.0 5.0 0.00 0.00 0.00 92 1014.0
20200330103554 40 95 4.0 5.0 0.00 0.00 0.00 92 1014.0
20200330103039 40 95 4.0 5.0 0.00 0.00 0.00 92 1014.0